sensor_id;sensor_type;location;lat;lon;timestamp;P1;durP1;ratioP1;P2;durP2;ratioP2
70487;SDS011;57976;48.174;16.370;2023-12-14T00:00:59;20.60;;;11.00;;
70487;SDS011;57976;48.174;16.370;2023-12-14T00:03:04;21.90;;;11.30;;
70487;SDS011;57976;48.174;16.370;2023-12-14T00:05:09;22.70;;;11.10;;
70487;SDS011;57976;48.174;16.370;2023-12-14T00:07:14;21.60;;;10.80;;
70487;SDS011;57976;48.174;16.370;2023-12-14T00:09:19;20.50;;;10.70;;
70487;SDS011;57976;48.174;16.370;2023-12-14T00:11:23;21.80;;;11.00;;
70487;SDS011;57976;48.174;16.370;2023-12-14T00:13:28;21.80;;;11.00;;
70487;SDS011;57976;48.174;16.370;2023-12-14T00:15:33;23.50;;;11.60;;
70487;SDS011;57976;48.174;16.370;2023-12-14T00:17:37;24.90;;;12.20;;
70487;SDS011;57976;48.174;16.370;2023-12-14T00:19:43;23.70;;;12.60;;
70487;SDS011;57976;48.174;16.370;2023-12-14T00:21:47;22.00;;;11.50;;
70487;SDS011;57976;48.174;16.370;2023-12-14T00:23:52;22.40;;;11.60;;
70487;SDS011;57976;48.174;16.370;2023-12-14T00:25:57;22.70;;;11.90;;
70487;SDS011;57976;48.174;16.370;2023-12-14T00:28:01;20.50;;;11.10;;
70487;SDS011;57976;48.174;16.370;2023-12-14T00:30:08;22.10;;;11.60;;
70487;SDS011;57976;48.174;16.370;2023-12-14T00:32:13;21.80;;;11.00;;
70487;SDS011;57976;48.174;16.370;2023-12-14T00:34:18;22.80;;;12.00;;
70487;SDS011;57976;48.174;16.370;2023-12-14T00:36:23;19.60;;;10.10;;
70487;SDS011;57976;48.174;16.370;2023-12-14T00:38:28;16.90;;;8.70;;
70487;SDS011;57976;48.174;16.370;2023-12-14T00:40:32;21.70;;;10.50;;
70487;SDS011;57976;48.174;16.370;2023-12-14T00:42:37;17.50;;;9.30;;
70487;SDS011;57976;48.174;16.370;2023-12-14T00:44:41;19.70;;;9.60;;
70487;SDS011;57976;48.174;16.370;2023-12-14T00:46:46;20.30;;;10.20;;
70487;SDS011;57976;48.174;16.370;2023-12-14T00:48:51;19.70;;;10.40;;
70487;SDS011;57976;48.174;16.370;2023-12-14T00:50:56;20.10;;;10.80;;
70487;SDS011;57976;48.174;16.370;2023-12-14T00:53:00;20.50;;;10.70;;
70487;SDS011;57976;48.174;16.370;2023-12-14T00:55:06;20.80;;;11.10;;
70487;SDS011;57976;48.174;16.370;2023-12-14T00:57:11;22.00;;;10.70;;
70487;SDS011;57976;48.174;16.370;2023-12-14T00:59:18;21.20;;;10.50;;
70487;SDS011;57976;48.174;16.370;2023-12-14T01:01:23;20.90;;;10.40;;
70487;SDS011;57976;48.174;16.370;2023-12-14T01:03:29;21.70;;;10.80;;
70487;SDS011;57976;48.174;16.370;2023-12-14T01:05:34;19.60;;;9.90;;
70487;SDS011;57976;48.174;16.370;2023-12-14T01:07:39;19.20;;;9.80;;
70487;SDS011;57976;48.174;16.370;2023-12-14T01:09:43;21.00;;;9.60;;
70487;SDS011;57976;48.174;16.370;2023-12-14T01:11:48;22.00;;;9.70;;
70487;SDS011;57976;48.174;16.370;2023-12-14T01:13:53;19.90;;;9.60;;
70487;SDS011;57976;48.174;16.370;2023-12-14T01:15:58;20.80;;;9.90;;
70487;SDS011;57976;48.174;16.370;2023-12-14T01:18:02;20.10;;;9.70;;
70487;SDS011;57976;48.174;16.370;2023-12-14T01:20:07;20.70;;;10.00;;
70487;SDS011;57976;48.174;16.370;2023-12-14T01:22:13;20.90;;;10.10;;
70487;SDS011;57976;48.174;16.370;2023-12-14T01:24:18;20.00;;;9.40;;
70487;SDS011;57976;48.174;16.370;2023-12-14T01:26:23;21.20;;;9.90;;
70487;SDS011;57976;48.174;16.370;2023-12-14T01:28:28;21.80;;;10.20;;
70487;SDS011;57976;48.174;16.370;2023-12-14T01:30:32;22.00;;;10.50;;
70487;SDS011;57976;48.174;16.370;2023-12-14T01:32:37;20.50;;;10.00;;
70487;SDS011;57976;48.174;16.370;2023-12-14T01:34:42;21.00;;;10.40;;
70487;SDS011;57976;48.174;16.370;2023-12-14T01:36:47;20.90;;;10.40;;
70487;SDS011;57976;48.174;16.370;2023-12-14T01:38:52;18.70;;;9.00;;
70487;SDS011;57976;48.174;16.370;2023-12-14T01:40:56;20.40;;;9.80;;
70487;SDS011;57976;48.174;16.370;2023-12-14T01:43:07;21.00;;;10.40;;
70487;SDS011;57976;48.174;16.370;2023-12-14T01:45:13;22.30;;;10.80;;
70487;SDS011;57976;48.174;16.370;2023-12-14T01:47:17;19.00;;;9.70;;
70487;SDS011;57976;48.174;16.370;2023-12-14T01:49:22;21.10;;;10.70;;
70487;SDS011;57976;48.174;16.370;2023-12-14T01:51:27;19.20;;;10.40;;
70487;SDS011;57976;48.174;16.370;2023-12-14T01:53:32;20.60;;;10.50;;
70487;SDS011;57976;48.174;16.370;2023-12-14T01:55:36;21.40;;;10.40;;
70487;SDS011;57976;48.174;16.370;2023-12-14T01:57:41;19.70;;;10.00;;
70487;SDS011;57976;48.174;16.370;2023-12-14T01:59:46;20.90;;;10.30;;
70487;SDS011;57976;48.174;16.370;2023-12-14T02:01:53;20.60;;;10.60;;
70487;SDS011;57976;48.174;16.370;2023-12-14T02:04:00;19.50;;;10.20;;
70487;SDS011;57976;48.174;16.370;2023-12-14T02:06:06;20.70;;;10.00;;
70487;SDS011;57976;48.174;16.370;2023-12-14T02:08:11;20.80;;;10.40;;
70487;SDS011;57976;48.174;16.370;2023-12-14T02:10:16;20.60;;;10.20;;
70487;SDS011;57976;48.174;16.370;2023-12-14T02:12:20;18.20;;;9.90;;
70487;SDS011;57976;48.174;16.370;2023-12-14T02:14:25;21.70;;;10.10;;
70487;SDS011;57976;48.174;16.370;2023-12-14T02:16:30;18.80;;;10.10;;
70487;SDS011;57976;48.174;16.370;2023-12-14T02:18:35;20.50;;;10.30;;
70487;SDS011;57976;48.174;16.370;2023-12-14T02:20:39;20.20;;;10.30;;
70487;SDS011;57976;48.174;16.370;2023-12-14T02:22:50;20.90;;;10.60;;
70487;SDS011;57976;48.174;16.370;2023-12-14T02:24:56;20.50;;;10.40;;
70487;SDS011;57976;48.174;16.370;2023-12-14T02:27:00;20.50;;;10.00;;
70487;SDS011;57976;48.174;16.370;2023-12-14T02:29:06;18.50;;;10.20;;
70487;SDS011;57976;48.174;16.370;2023-12-14T02:31:11;18.00;;;9.60;;
70487;SDS011;57976;48.174;16.370;2023-12-14T02:33:15;17.00;;;8.70;;
70487;SDS011;57976;48.174;16.370;2023-12-14T02:35:20;17.40;;;9.30;;
70487;SDS011;57976;48.174;16.370;2023-12-14T02:37:25;16.50;;;8.80;;
70487;SDS011;57976;48.174;16.370;2023-12-14T02:39:30;18.80;;;8.90;;
70487;SDS011;57976;48.174;16.370;2023-12-14T02:41:34;17.00;;;8.80;;
70487;SDS011;57976;48.174;16.370;2023-12-14T02:43:39;16.10;;;8.60;;
70487;SDS011;57976;48.174;16.370;2023-12-14T02:45:44;15.80;;;8.20;;
70487;SDS011;57976;48.174;16.370;2023-12-14T02:47:48;15.50;;;8.60;;
70487;SDS011;57976;48.174;16.370;2023-12-14T02:49:53;17.60;;;8.20;;
70487;SDS011;57976;48.174;16.370;2023-12-14T02:51:58;16.30;;;8.40;;
70487;SDS011;57976;48.174;16.370;2023-12-14T02:54:03;16.30;;;8.80;;
70487;SDS011;57976;48.174;16.370;2023-12-14T02:56:09;14.60;;;8.10;;
70487;SDS011;57976;48.174;16.370;2023-12-14T02:58:14;16.00;;;8.70;;
70487;SDS011;57976;48.174;16.370;2023-12-14T03:00:19;15.30;;;8.40;;
70487;SDS011;57976;48.174;16.370;2023-12-14T03:02:24;15.00;;;8.30;;
70487;SDS011;57976;48.174;16.370;2023-12-14T03:04:28;14.70;;;7.90;;
70487;SDS011;57976;48.174;16.370;2023-12-14T03:06:33;17.20;;;8.40;;
70487;SDS011;57976;48.174;16.370;2023-12-14T03:08:38;15.30;;;8.70;;
70487;SDS011;57976;48.174;16.370;2023-12-14T03:10:43;14.40;;;8.10;;
70487;SDS011;57976;48.174;16.370;2023-12-14T03:12:47;14.90;;;7.70;;
70487;SDS011;57976;48.174;16.370;2023-12-14T03:14:52;15.40;;;8.20;;
70487;SDS011;57976;48.174;16.370;2023-12-14T03:17:00;14.60;;;8.10;;
70487;SDS011;57976;48.174;16.370;2023-12-14T03:19:04;14.00;;;8.10;;
70487;SDS011;57976;48.174;16.370;2023-12-14T03:21:10;15.20;;;8.20;;
70487;SDS011;57976;48.174;16.370;2023-12-14T03:23:15;14.70;;;8.30;;
70487;SDS011;57976;48.174;16.370;2023-12-14T03:25:19;13.80;;;7.50;;
70487;SDS011;57976;48.174;16.370;2023-12-14T03:27:25;14.90;;;8.30;;
70487;SDS011;57976;48.174;16.370;2023-12-14T03:29:29;14.30;;;7.70;;
70487;SDS011;57976;48.174;16.370;2023-12-14T03:31:34;14.10;;;8.10;;
70487;SDS011;57976;48.174;16.370;2023-12-14T03:33:39;13.50;;;7.80;;
70487;SDS011;57976;48.174;16.370;2023-12-14T03:35:47;13.70;;;7.60;;
70487;SDS011;57976;48.174;16.370;2023-12-14T03:37:52;13.40;;;7.40;;
70487;SDS011;57976;48.174;16.370;2023-12-14T03:39:57;14.00;;;7.10;;
70487;SDS011;57976;48.174;16.370;2023-12-14T03:42:01;12.90;;;7.20;;
70487;SDS011;57976;48.174;16.370;2023-12-14T03:44:06;12.80;;;6.90;;
70487;SDS011;57976;48.174;16.370;2023-12-14T03:46:11;13.00;;;7.60;;
70487;SDS011;57976;48.174;16.370;2023-12-14T03:48:16;13.30;;;7.80;;
70487;SDS011;57976;48.174;16.370;2023-12-14T03:50:21;13.10;;;7.10;;
70487;SDS011;57976;48.174;16.370;2023-12-14T03:52:26;13.80;;;7.20;;
70487;SDS011;57976;48.174;16.370;2023-12-14T03:54:31;14.60;;;7.60;;
70487;SDS011;57976;48.174;16.370;2023-12-14T03:56:35;13.90;;;7.30;;
70487;SDS011;57976;48.174;16.370;2023-12-14T03:58:40;13.30;;;7.20;;
70487;SDS011;57976;48.174;16.370;2023-12-14T04:00:45;13.50;;;7.40;;
70487;SDS011;57976;48.174;16.370;2023-12-14T04:02:50;14.00;;;7.50;;
70487;SDS011;57976;48.174;16.370;2023-12-14T04:04:54;13.30;;;7.40;;
70487;SDS011;57976;48.174;16.370;2023-12-14T04:06:59;14.00;;;8.00;;
70487;SDS011;57976;48.174;16.370;2023-12-14T04:09:04;15.00;;;8.10;;
70487;SDS011;57976;48.174;16.370;2023-12-14T04:11:09;13.20;;;7.40;;
70487;SDS011;57976;48.174;16.370;2023-12-14T04:13:14;13.90;;;7.40;;
70487;SDS011;57976;48.174;16.370;2023-12-14T04:15:18;14.30;;;7.10;;
70487;SDS011;57976;48.174;16.370;2023-12-14T04:17:24;13.30;;;7.10;;
70487;SDS011;57976;48.174;16.370;2023-12-14T04:19:28;14.30;;;7.70;;
70487;SDS011;57976;48.174;16.370;2023-12-14T04:21:33;13.00;;;7.20;;
70487;SDS011;57976;48.174;16.370;2023-12-14T04:23:38;13.20;;;7.10;;
70487;SDS011;57976;48.174;16.370;2023-12-14T04:25:42;14.40;;;7.20;;
70487;SDS011;57976;48.174;16.370;2023-12-14T04:27:47;14.40;;;7.40;;
70487;SDS011;57976;48.174;16.370;2023-12-14T04:29:52;12.90;;;6.90;;
70487;SDS011;57976;48.174;16.370;2023-12-14T04:31:57;12.20;;;6.70;;
70487;SDS011;57976;48.174;16.370;2023-12-14T04:34:01;12.50;;;6.90;;
70487;SDS011;57976;48.174;16.370;2023-12-14T04:36:07;13.20;;;6.70;;
70487;SDS011;57976;48.174;16.370;2023-12-14T04:38:12;11.10;;;6.20;;
70487;SDS011;57976;48.174;16.370;2023-12-14T04:40:16;12.90;;;6.50;;
70487;SDS011;57976;48.174;16.370;2023-12-14T04:42:21;12.60;;;6.70;;
70487;SDS011;57976;48.174;16.370;2023-12-14T04:44:26;12.90;;;6.60;;
70487;SDS011;57976;48.174;16.370;2023-12-14T04:46:31;11.30;;;6.00;;
70487;SDS011;57976;48.174;16.370;2023-12-14T04:48:35;10.80;;;5.80;;
70487;SDS011;57976;48.174;16.370;2023-12-14T04:50:40;11.20;;;6.10;;
70487;SDS011;57976;48.174;16.370;2023-12-14T04:52:45;11.10;;;5.70;;
70487;SDS011;57976;48.174;16.370;2023-12-14T04:54:50;10.30;;;5.20;;
70487;SDS011;57976;48.174;16.370;2023-12-14T04:56:54;11.70;;;6.10;;
70487;SDS011;57976;48.174;16.370;2023-12-14T04:58:59;10.30;;;5.50;;
70487;SDS011;57976;48.174;16.370;2023-12-14T05:01:04;10.00;;;5.60;;
70487;SDS011;57976;48.174;16.370;2023-12-14T05:03:09;10.00;;;5.60;;
70487;SDS011;57976;48.174;16.370;2023-12-14T05:05:14;10.60;;;5.20;;
70487;SDS011;57976;48.174;16.370;2023-12-14T05:07:18;9.00;;;5.00;;
70487;SDS011;57976;48.174;16.370;2023-12-14T05:09:23;10.90;;;6.00;;
70487;SDS011;57976;48.174;16.370;2023-12-14T05:11:28;9.60;;;5.30;;
70487;SDS011;57976;48.174;16.370;2023-12-14T05:13:32;9.50;;;5.20;;
70487;SDS011;57976;48.174;16.370;2023-12-14T05:15:37;9.90;;;5.40;;
70487;SDS011;57976;48.174;16.370;2023-12-14T05:17:42;10.60;;;5.50;;
70487;SDS011;57976;48.174;16.370;2023-12-14T05:19:48;9.30;;;5.00;;
70487;SDS011;57976;48.174;16.370;2023-12-14T05:21:52;9.40;;;5.10;;
70487;SDS011;57976;48.174;16.370;2023-12-14T05:23:57;10.40;;;5.20;;
70487;SDS011;57976;48.174;16.370;2023-12-14T05:26:02;9.40;;;5.00;;
70487;SDS011;57976;48.174;16.370;2023-12-14T05:28:07;9.50;;;5.40;;
70487;SDS011;57976;48.174;16.370;2023-12-14T05:30:12;9.20;;;5.00;;
70487;SDS011;57976;48.174;16.370;2023-12-14T05:32:17;8.50;;;4.90;;
70487;SDS011;57976;48.174;16.370;2023-12-14T05:34:22;8.20;;;4.40;;
70487;SDS011;57976;48.174;16.370;2023-12-14T05:36:27;9.00;;;4.40;;
70487;SDS011;57976;48.174;16.370;2023-12-14T05:38:31;8.00;;;4.00;;
70487;SDS011;57976;48.174;16.370;2023-12-14T05:40:36;7.60;;;4.10;;
70487;SDS011;57976;48.174;16.370;2023-12-14T05:42:41;7.50;;;4.20;;
70487;SDS011;57976;48.174;16.370;2023-12-14T05:44:45;7.50;;;3.60;;
70487;SDS011;57976;48.174;16.370;2023-12-14T05:46:50;6.80;;;3.40;;
70487;SDS011;57976;48.174;16.370;2023-12-14T05:48:55;8.50;;;3.80;;
70487;SDS011;57976;48.174;16.370;2023-12-14T05:51:00;7.50;;;3.30;;
70487;SDS011;57976;48.174;16.370;2023-12-14T05:53:05;6.90;;;3.10;;
70487;SDS011;57976;48.174;16.370;2023-12-14T05:55:09;8.80;;;3.40;;
70487;SDS011;57976;48.174;16.370;2023-12-14T05:57:14;6.40;;;2.90;;
70487;SDS011;57976;48.174;16.370;2023-12-14T05:59:19;6.60;;;3.00;;
70487;SDS011;57976;48.174;16.370;2023-12-14T06:01:24;6.50;;;2.90;;
70487;SDS011;57976;48.174;16.370;2023-12-14T06:03:29;6.00;;;2.50;;
70487;SDS011;57976;48.174;16.370;2023-12-14T06:05:33;6.00;;;2.30;;
70487;SDS011;57976;48.174;16.370;2023-12-14T06:07:38;5.50;;;2.20;;
70487;SDS011;57976;48.174;16.370;2023-12-14T06:09:43;5.60;;;2.00;;
70487;SDS011;57976;48.174;16.370;2023-12-14T06:11:48;5.60;;;1.90;;
70487;SDS011;57976;48.174;16.370;2023-12-14T06:13:53;5.30;;;1.90;;
70487;SDS011;57976;48.174;16.370;2023-12-14T06:15:57;4.60;;;1.70;;
70487;SDS011;57976;48.174;16.370;2023-12-14T06:18:02;4.40;;;1.50;;
70487;SDS011;57976;48.174;16.370;2023-12-14T06:20:08;4.60;;;1.60;;
70487;SDS011;57976;48.174;16.370;2023-12-14T06:22:13;4.60;;;1.60;;
70487;SDS011;57976;48.174;16.370;2023-12-14T06:24:18;4.10;;;1.40;;
70487;SDS011;57976;48.174;16.370;2023-12-14T06:26:23;4.00;;;1.50;;
70487;SDS011;57976;48.174;16.370;2023-12-14T06:28:29;4.20;;;1.20;;
70487;SDS011;57976;48.174;16.370;2023-12-14T06:30:34;3.90;;;1.20;;
70487;SDS011;57976;48.174;16.370;2023-12-14T06:32:39;4.00;;;1.00;;
70487;SDS011;57976;48.174;16.370;2023-12-14T06:34:44;4.00;;;1.20;;
70487;SDS011;57976;48.174;16.370;2023-12-14T06:36:49;4.10;;;1.10;;
70487;SDS011;57976;48.174;16.370;2023-12-14T06:38:54;4.10;;;1.30;;
70487;SDS011;57976;48.174;16.370;2023-12-14T06:40:59;3.90;;;1.10;;
70487;SDS011;57976;48.174;16.370;2023-12-14T06:43:04;4.00;;;0.90;;
70487;SDS011;57976;48.174;16.370;2023-12-14T06:45:10;3.60;;;0.80;;
70487;SDS011;57976;48.174;16.370;2023-12-14T06:47:14;4.00;;;1.10;;
70487;SDS011;57976;48.174;16.370;2023-12-14T06:49:19;4.40;;;1.00;;
70487;SDS011;57976;48.174;16.370;2023-12-14T06:51:24;3.60;;;0.80;;
70487;SDS011;57976;48.174;16.370;2023-12-14T06:53:29;3.50;;;0.90;;
70487;SDS011;57976;48.174;16.370;2023-12-14T06:55:33;3.20;;;0.80;;
70487;SDS011;57976;48.174;16.370;2023-12-14T06:57:38;3.50;;;0.80;;
70487;SDS011;57976;48.174;16.370;2023-12-14T06:59:45;3.60;;;1.00;;
70487;SDS011;57976;48.174;16.370;2023-12-14T07:01:49;3.80;;;0.80;;
70487;SDS011;57976;48.174;16.370;2023-12-14T07:03:54;4.20;;;1.00;;
70487;SDS011;57976;48.174;16.370;2023-12-14T07:05:59;3.80;;;1.10;;
70487;SDS011;57976;48.174;16.370;2023-12-14T07:08:04;3.70;;;1.10;;
70487;SDS011;57976;48.174;16.370;2023-12-14T07:10:09;3.50;;;1.00;;
70487;SDS011;57976;48.174;16.370;2023-12-14T07:12:13;3.90;;;1.00;;
70487;SDS011;57976;48.174;16.370;2023-12-14T07:14:18;3.20;;;0.90;;
70487;SDS011;57976;48.174;16.370;2023-12-14T07:16:27;3.40;;;1.00;;
70487;SDS011;57976;48.174;16.370;2023-12-14T07:18:32;3.60;;;1.00;;
70487;SDS011;57976;48.174;16.370;2023-12-14T07:20:37;3.90;;;1.00;;
70487;SDS011;57976;48.174;16.370;2023-12-14T07:22:42;3.40;;;0.90;;
70487;SDS011;57976;48.174;16.370;2023-12-14T07:24:47;3.30;;;1.00;;
70487;SDS011;57976;48.174;16.370;2023-12-14T07:27:01;3.70;;;0.90;;
70487;SDS011;57976;48.174;16.370;2023-12-14T07:29:06;3.20;;;0.90;;
70487;SDS011;57976;48.174;16.370;2023-12-14T07:31:11;2.80;;;0.70;;
70487;SDS011;57976;48.174;16.370;2023-12-14T07:33:16;3.40;;;0.90;;
70487;SDS011;57976;48.174;16.370;2023-12-14T07:35:21;3.80;;;0.60;;
70487;SDS011;57976;48.174;16.370;2023-12-14T07:37:25;3.00;;;0.70;;
70487;SDS011;57976;48.174;16.370;2023-12-14T07:39:30;4.10;;;0.70;;
70487;SDS011;57976;48.174;16.370;2023-12-14T07:41:35;3.00;;;0.60;;
70487;SDS011;57976;48.174;16.370;2023-12-14T07:43:39;3.10;;;0.70;;
70487;SDS011;57976;48.174;16.370;2023-12-14T07:45:44;3.00;;;0.60;;
70487;SDS011;57976;48.174;16.370;2023-12-14T07:47:49;3.30;;;0.60;;
70487;SDS011;57976;48.174;16.370;2023-12-14T07:49:54;3.30;;;0.70;;
70487;SDS011;57976;48.174;16.370;2023-12-14T07:51:59;3.10;;;0.60;;
70487;SDS011;57976;48.174;16.370;2023-12-14T07:54:04;2.30;;;0.50;;
70487;SDS011;57976;48.174;16.370;2023-12-14T07:56:09;2.50;;;0.50;;
70487;SDS011;57976;48.174;16.370;2023-12-14T07:58:14;1.80;;;0.50;;
70487;SDS011;57976;48.174;16.370;2023-12-14T08:00:19;2.20;;;0.50;;
70487;SDS011;57976;48.174;16.370;2023-12-14T08:02:24;2.20;;;0.50;;
70487;SDS011;57976;48.174;16.370;2023-12-14T08:04:28;2.20;;;0.50;;
70487;SDS011;57976;48.174;16.370;2023-12-14T08:06:33;2.00;;;0.50;;
70487;SDS011;57976;48.174;16.370;2023-12-14T08:08:38;3.00;;;0.70;;
70487;SDS011;57976;48.174;16.370;2023-12-14T08:10:43;2.60;;;0.70;;
70487;SDS011;57976;48.174;16.370;2023-12-14T08:12:48;3.60;;;0.50;;
70487;SDS011;57976;48.174;16.370;2023-12-14T08:14:52;2.30;;;0.60;;
70487;SDS011;57976;48.174;16.370;2023-12-14T08:16:57;2.20;;;0.50;;
70487;SDS011;57976;48.174;16.370;2023-12-14T08:19:02;2.70;;;0.50;;
70487;SDS011;57976;48.174;16.370;2023-12-14T08:21:07;2.40;;;0.50;;
70487;SDS011;57976;48.174;16.370;2023-12-14T08:23:15;2.50;;;0.60;;
70487;SDS011;57976;48.174;16.370;2023-12-14T08:25:19;3.00;;;0.70;;
70487;SDS011;57976;48.174;16.370;2023-12-14T08:27:24;3.90;;;0.70;;
70487;SDS011;57976;48.174;16.370;2023-12-14T08:29:29;3.40;;;0.70;;
70487;SDS011;57976;48.174;16.370;2023-12-14T08:31:34;3.00;;;0.70;;
70487;SDS011;57976;48.174;16.370;2023-12-14T08:33:39;3.00;;;0.70;;
70487;SDS011;57976;48.174;16.370;2023-12-14T08:35:52;4.00;;;1.20;;
70487;SDS011;57976;48.174;16.370;2023-12-14T08:37:56;3.90;;;1.00;;
70487;SDS011;57976;48.174;16.370;2023-12-14T08:40:01;3.50;;;1.10;;
70487;SDS011;57976;48.174;16.370;2023-12-14T08:42:08;3.60;;;1.10;;
70487;SDS011;57976;48.174;16.370;2023-12-14T08:44:12;2.80;;;0.80;;
70487;SDS011;57976;48.174;16.370;2023-12-14T08:46:17;3.10;;;0.80;;
70487;SDS011;57976;48.174;16.370;2023-12-14T08:48:22;2.50;;;0.80;;
70487;SDS011;57976;48.174;16.370;2023-12-14T08:50:27;3.30;;;0.90;;
70487;SDS011;57976;48.174;16.370;2023-12-14T08:52:32;4.00;;;0.90;;
70487;SDS011;57976;48.174;16.370;2023-12-14T08:54:37;3.70;;;0.90;;
70487;SDS011;57976;48.174;16.370;2023-12-14T08:56:41;3.70;;;1.00;;
70487;SDS011;57976;48.174;16.370;2023-12-14T08:58:46;3.70;;;0.80;;
70487;SDS011;57976;48.174;16.370;2023-12-14T09:00:51;4.30;;;0.80;;
70487;SDS011;57976;48.174;16.370;2023-12-14T09:02:56;3.30;;;0.90;;
70487;SDS011;57976;48.174;16.370;2023-12-14T09:05:01;3.90;;;0.70;;
70487;SDS011;57976;48.174;16.370;2023-12-14T09:07:06;3.20;;;0.70;;
70487;SDS011;57976;48.174;16.370;2023-12-14T09:09:11;4.30;;;0.80;;
70487;SDS011;57976;48.174;16.370;2023-12-14T09:11:15;2.80;;;0.90;;
70487;SDS011;57976;48.174;16.370;2023-12-14T09:13:20;3.30;;;0.80;;
70487;SDS011;57976;48.174;16.370;2023-12-14T09:15:25;3.80;;;0.70;;
70487;SDS011;57976;48.174;16.370;2023-12-14T09:17:30;4.10;;;0.80;;
70487;SDS011;57976;48.174;16.370;2023-12-14T09:19:36;3.20;;;0.80;;
70487;SDS011;57976;48.174;16.370;2023-12-14T09:21:41;4.00;;;0.90;;
70487;SDS011;57976;48.174;16.370;2023-12-14T09:23:48;3.80;;;0.90;;
70487;SDS011;57976;48.174;16.370;2023-12-14T09:25:53;3.90;;;0.80;;
70487;SDS011;57976;48.174;16.370;2023-12-14T09:27:58;3.50;;;0.90;;
70487;SDS011;57976;48.174;16.370;2023-12-14T09:30:03;3.70;;;0.70;;
70487;SDS011;57976;48.174;16.370;2023-12-14T09:32:09;3.00;;;0.70;;
70487;SDS011;57976;48.174;16.370;2023-12-14T09:34:14;3.90;;;1.00;;
70487;SDS011;57976;48.174;16.370;2023-12-14T09:36:19;3.00;;;0.70;;
70487;SDS011;57976;48.174;16.370;2023-12-14T09:38:23;3.20;;;0.80;;
70487;SDS011;57976;48.174;16.370;2023-12-14T09:40:28;3.00;;;0.80;;
70487;SDS011;57976;48.174;16.370;2023-12-14T09:42:35;3.70;;;0.90;;
70487;SDS011;57976;48.174;16.370;2023-12-14T09:44:41;3.80;;;1.00;;
70487;SDS011;57976;48.174;16.370;2023-12-14T09:46:48;3.10;;;0.70;;
70487;SDS011;57976;48.174;16.370;2023-12-14T09:48:53;4.50;;;1.00;;
70487;SDS011;57976;48.174;16.370;2023-12-14T09:51:00;4.00;;;1.00;;
70487;SDS011;57976;48.174;16.370;2023-12-14T09:53:05;4.20;;;1.10;;
70487;SDS011;57976;48.174;16.370;2023-12-14T09:55:10;3.60;;;1.10;;
70487;SDS011;57976;48.174;16.370;2023-12-14T09:57:15;3.80;;;0.90;;
70487;SDS011;57976;48.174;16.370;2023-12-14T09:59:22;4.10;;;1.00;;
70487;SDS011;57976;48.174;16.370;2023-12-14T10:01:27;2.80;;;0.70;;
70487;SDS011;57976;48.174;16.370;2023-12-14T10:03:32;3.10;;;1.00;;
70487;SDS011;57976;48.174;16.370;2023-12-14T10:05:37;4.60;;;1.00;;
70487;SDS011;57976;48.174;16.370;2023-12-14T10:07:42;3.70;;;0.90;;
70487;SDS011;57976;48.174;16.370;2023-12-14T10:09:47;4.40;;;1.10;;
70487;SDS011;57976;48.174;16.370;2023-12-14T10:12:01;3.90;;;0.90;;
70487;SDS011;57976;48.174;16.370;2023-12-14T10:14:18;5.30;;;1.20;;
70487;SDS011;57976;48.174;16.370;2023-12-14T10:16:30;3.10;;;0.70;;
70487;SDS011;57976;48.174;16.370;2023-12-14T10:18:35;3.70;;;0.90;;
70487;SDS011;57976;48.174;16.370;2023-12-14T10:20:40;4.60;;;1.10;;
70487;SDS011;57976;48.174;16.370;2023-12-14T10:22:45;3.50;;;0.80;;
70487;SDS011;57976;48.174;16.370;2023-12-14T10:24:51;3.50;;;0.90;;
70487;SDS011;57976;48.174;16.370;2023-12-14T10:26:56;2.90;;;1.00;;
70487;SDS011;57976;48.174;16.370;2023-12-14T10:29:00;3.60;;;0.80;;
70487;SDS011;57976;48.174;16.370;2023-12-14T10:31:05;3.40;;;0.80;;
70487;SDS011;57976;48.174;16.370;2023-12-14T10:33:10;3.80;;;0.80;;
70487;SDS011;57976;48.174;16.370;2023-12-14T10:35:15;3.40;;;0.80;;
70487;SDS011;57976;48.174;16.370;2023-12-14T10:37:20;3.30;;;0.60;;
70487;SDS011;57976;48.174;16.370;2023-12-14T10:39:27;3.60;;;0.80;;
70487;SDS011;57976;48.174;16.370;2023-12-14T10:41:33;3.00;;;0.70;;
70487;SDS011;57976;48.174;16.370;2023-12-14T10:43:39;3.20;;;0.90;;
70487;SDS011;57976;48.174;16.370;2023-12-14T10:45:53;2.40;;;0.60;;
70487;SDS011;57976;48.174;16.370;2023-12-14T10:47:58;3.30;;;0.90;;
70487;SDS011;57976;48.174;16.370;2023-12-14T10:50:05;2.90;;;0.80;;
70487;SDS011;57976;48.174;16.370;2023-12-14T10:52:11;2.70;;;0.80;;
70487;SDS011;57976;48.174;16.370;2023-12-14T10:54:16;2.90;;;0.70;;
70487;SDS011;57976;48.174;16.370;2023-12-14T10:56:22;3.50;;;0.80;;
70487;SDS011;57976;48.174;16.370;2023-12-14T10:58:27;3.80;;;1.00;;
70487;SDS011;57976;48.174;16.370;2023-12-14T11:00:49;3.10;;;0.90;;
70487;SDS011;57976;48.174;16.370;2023-12-14T11:03:03;3.90;;;0.80;;
70487;SDS011;57976;48.174;16.370;2023-12-14T11:05:10;2.80;;;0.70;;
70487;SDS011;57976;48.174;16.370;2023-12-14T11:07:16;3.50;;;0.70;;
70487;SDS011;57976;48.174;16.370;2023-12-14T11:09:22;3.20;;;0.90;;
70487;SDS011;57976;48.174;16.370;2023-12-14T11:11:30;4.20;;;0.80;;
70487;SDS011;57976;48.174;16.370;2023-12-14T11:13:42;3.10;;;0.80;;
70487;SDS011;57976;48.174;16.370;2023-12-14T11:15:49;4.90;;;0.90;;
70487;SDS011;57976;48.174;16.370;2023-12-14T11:20:26;4.50;;;0.80;;
70487;SDS011;57976;48.174;16.370;2023-12-14T11:22:31;3.90;;;1.00;;
70487;SDS011;57976;48.174;16.370;2023-12-14T11:24:37;5.10;;;1.30;;
70487;SDS011;57976;48.174;16.370;2023-12-14T11:26:46;6.20;;;2.00;;
70487;SDS011;57976;48.174;16.370;2023-12-14T11:28:53;4.30;;;1.30;;
70487;SDS011;57976;48.174;16.370;2023-12-14T11:30:59;3.70;;;1.10;;
70487;SDS011;57976;48.174;16.370;2023-12-14T11:33:05;4.10;;;1.00;;
70487;SDS011;57976;48.174;16.370;2023-12-14T11:35:09;3.60;;;1.10;;
70487;SDS011;57976;48.174;16.370;2023-12-14T11:37:14;4.20;;;1.20;;
70487;SDS011;57976;48.174;16.370;2023-12-14T11:39:22;4.00;;;1.20;;
70487;SDS011;57976;48.174;16.370;2023-12-14T11:41:27;4.40;;;1.30;;
70487;SDS011;57976;48.174;16.370;2023-12-14T11:43:39;4.90;;;1.40;;
70487;SDS011;57976;48.174;16.370;2023-12-14T11:45:45;3.90;;;1.30;;
70487;SDS011;57976;48.174;16.370;2023-12-14T11:47:53;4.30;;;1.30;;
70487;SDS011;57976;48.174;16.370;2023-12-14T11:49:58;4.80;;;1.50;;
70487;SDS011;57976;48.174;16.370;2023-12-14T11:52:03;4.50;;;1.50;;
70487;SDS011;57976;48.174;16.370;2023-12-14T11:54:08;4.30;;;1.40;;
70487;SDS011;57976;48.174;16.370;2023-12-14T11:56:12;4.70;;;1.60;;
70487;SDS011;57976;48.174;16.370;2023-12-14T11:58:17;5.00;;;1.40;;
70487;SDS011;57976;48.174;16.370;2023-12-14T12:00:24;4.20;;;1.50;;
70487;SDS011;57976;48.174;16.370;2023-12-14T12:02:30;4.70;;;1.60;;
70487;SDS011;57976;48.174;16.370;2023-12-14T12:04:35;5.10;;;2.00;;
70487;SDS011;57976;48.174;16.370;2023-12-14T12:06:39;5.20;;;1.80;;
70487;SDS011;57976;48.174;16.370;2023-12-14T12:08:44;5.00;;;1.90;;
70487;SDS011;57976;48.174;16.370;2023-12-14T12:10:49;5.00;;;1.70;;
70487;SDS011;57976;48.174;16.370;2023-12-14T12:13:00;5.40;;;1.80;;
70487;SDS011;57976;48.174;16.370;2023-12-14T12:15:06;5.30;;;1.70;;
70487;SDS011;57976;48.174;16.370;2023-12-14T12:17:11;5.40;;;1.90;;
70487;SDS011;57976;48.174;16.370;2023-12-14T12:19:16;5.40;;;2.10;;